createdAt,value
2019-01-18T00:00:10.287Z,999.97
2019-01-18T00:01:10.272Z,999.99
2019-01-18T00:02:10.270Z,1000.01
2019-01-18T00:03:10.273Z,1000.01
2019-01-18T00:04:10.243Z,1000.02
2019-01-18T00:05:10.228Z,1000.04
2019-01-18T00:06:10.224Z,1000.09
2019-01-18T00:07:10.205Z,1000.06
2019-01-18T00:08:10.216Z,1000.09
2019-01-18T00:09:10.179Z,1000.09
2019-01-18T00:10:10.169Z,1000.08
2019-01-18T00:11:10.161Z,1000.15
2019-01-18T00:12:10.153Z,1000.08
2019-01-18T00:13:10.162Z,1000.13
2019-01-18T00:14:10.134Z,1000.14
2019-01-18T00:15:10.114Z,1000.14
2019-01-18T00:16:10.107Z,1000.18
2019-01-18T00:17:10.091Z,1000.18
2019-01-18T00:18:10.102Z,1000.15
2019-01-18T00:19:10.071Z,1000.22
2019-01-18T00:20:10.062Z,1000.18
2019-01-18T00:21:10.064Z,1000.13
2019-01-18T00:22:10.040Z,1000.17
2019-01-18T00:23:10.032Z,1000.15
2019-01-18T00:24:10.043Z,1000.19
2019-01-18T00:25:10.011Z,1000.21
2019-01-18T00:26:09.992Z,1000.25
2019-01-18T00:27:09.983Z,1000.28
2019-01-18T00:28:09.969Z,1000.34
2019-01-18T00:29:09.976Z,1000.25
2019-01-18T00:30:09.948Z,1000.24
2019-01-18T00:31:09.935Z,1000.30
2019-01-18T00:32:09.925Z,1000.31
2019-01-18T00:33:09.912Z,1000.41
2019-01-18T00:34:09.921Z,1000.34
2019-01-18T00:35:09.906Z,1000.38
2019-01-18T00:36:09.879Z,1000.44
2019-01-18T00:37:09.872Z,1000.50
2019-01-18T00:38:09.856Z,1000.48
2019-01-18T00:39:09.886Z,1000.47
2019-01-18T00:40:09.843Z,1000.44
2019-01-18T00:41:09.834Z,1000.53
2019-01-18T00:42:09.823Z,1000.51
2019-01-18T00:43:09.801Z,1000.58
2019-01-18T00:44:09.808Z,1000.50
2019-01-18T00:45:09.785Z,1000.62
2019-01-18T00:46:09.767Z,1000.52
2019-01-18T00:47:09.755Z,1000.58
2019-01-18T00:48:09.746Z,1000.60
2019-01-18T00:49:09.766Z,1000.56
2019-01-18T00:50:09.736Z,1000.63
2019-01-18T00:51:09.718Z,1000.58
2019-01-18T00:52:09.724Z,1000.57
2019-01-18T00:53:09.694Z,1000.59
2019-01-18T00:54:09.691Z,1000.69
2019-01-18T00:55:09.700Z,1000.62
2019-01-18T00:56:09.653Z,1000.62
2019-01-18T00:57:09.650Z,1000.66
2019-01-18T00:58:09.655Z,1000.63
2019-01-18T00:59:09.635Z,1000.68
2019-01-18T01:00:09.642Z,1000.71
2019-01-18T01:01:09.611Z,1000.69
2019-01-18T01:02:09.620Z,1000.70
2019-01-18T01:03:09.583Z,1000.77
2019-01-18T01:04:09.567Z,1000.75
2019-01-18T01:05:09.555Z,1000.81
2019-01-18T01:06:09.559Z,1000.79
2019-01-18T01:07:09.543Z,1000.81
2019-01-18T01:08:09.530Z,1000.81
2019-01-18T01:09:09.525Z,1000.82
2019-01-18T01:10:09.504Z,1000.78
2019-01-18T01:11:09.512Z,1000.83
2019-01-18T01:12:09.521Z,1000.83
2019-01-18T01:13:09.479Z,1000.88
2019-01-18T01:14:09.468Z,1000.88
2019-01-18T01:15:09.463Z,1000.91
2019-01-18T01:16:09.464Z,1000.95
2019-01-18T01:17:09.428Z,1000.91
2019-01-18T01:18:09.431Z,1000.97
2019-01-18T01:19:09.403Z,1000.99
2019-01-18T01:20:09.413Z,1001.02
2019-01-18T01:21:09.405Z,1001.00
2019-01-18T01:22:09.366Z,1001.03
2019-01-18T01:23:09.374Z,1000.99
2019-01-18T01:24:09.354Z,1001.08
2019-01-18T01:25:09.339Z,1001.10
2019-01-18T01:26:09.334Z,1001.07
2019-01-18T01:27:09.373Z,1001.19
2019-01-18T01:28:09.299Z,1001.17
2019-01-18T01:29:09.288Z,1001.23
2019-01-18T01:30:09.275Z,1001.27
2019-01-18T01:31:09.278Z,1001.25
2019-01-18T01:32:09.281Z,1001.24
2019-01-18T01:33:09.271Z,1001.26
2019-01-18T01:34:09.235Z,1001.31
2019-01-18T01:35:09.222Z,1001.41
2019-01-18T01:36:09.213Z,1001.47
2019-01-18T01:37:09.208Z,1001.71
2019-01-18T01:38:09.283Z,1001.90
2019-01-18T01:39:09.185Z,1001.85
2019-01-18T01:40:09.166Z,1001.80
2019-01-18T01:41:09.154Z,1001.88
2019-01-18T01:42:09.145Z,1001.87
2019-01-18T01:43:09.153Z,1001.96
2019-01-18T01:44:09.122Z,1001.90
2019-01-18T01:45:09.123Z,1001.99
2019-01-18T01:46:09.103Z,1002.02
2019-01-18T01:47:09.090Z,1001.98
2019-01-18T01:48:09.092Z,1001.98
2019-01-18T01:49:09.083Z,1002.11
2019-01-18T01:50:09.054Z,1002.11
2019-01-18T01:51:09.056Z,1002.17
2019-01-18T01:52:09.033Z,1002.10
2019-01-18T01:53:09.039Z,1002.27
2019-01-18T01:54:09.024Z,1002.22
2019-01-18T01:55:09.004Z,1002.17
2019-01-18T01:56:08.991Z,1002.21
2019-01-18T01:57:08.978Z,1002.33
2019-01-18T01:58:09.004Z,1002.33
2019-01-18T01:59:08.959Z,1002.39
2019-01-18T02:00:08.952Z,1002.46
2019-01-18T02:01:08.935Z,1002.46
2019-01-18T02:02:08.925Z,1002.45
2019-01-18T02:03:08.920Z,1002.53
2019-01-18T02:04:08.939Z,1002.55
2019-01-18T02:05:08.896Z,1002.55
2019-01-18T02:06:08.892Z,1002.60
2019-01-18T02:07:08.865Z,1002.64
2019-01-18T02:08:08.874Z,1002.67
2019-01-18T02:09:09.156Z,1002.73
2019-01-18T02:10:08.831Z,1002.66
2019-01-18T02:11:08.821Z,1002.71
2019-01-18T02:12:08.809Z,1002.71
2019-01-18T02:13:08.800Z,1002.85
2019-01-18T02:14:08.852Z,1002.88
2019-01-18T02:15:08.780Z,1002.85
2019-01-18T02:16:08.768Z,1002.92
2019-01-18T02:17:08.762Z,1002.91
2019-01-18T02:18:08.746Z,1002.93
2019-01-18T02:19:08.783Z,1002.93
2019-01-18T02:20:08.725Z,1002.98
2019-01-18T02:21:08.728Z,1003.01
2019-01-18T02:22:08.706Z,1003.08
2019-01-18T02:23:08.697Z,1003.04
2019-01-18T02:24:08.679Z,1003.13
2019-01-18T02:25:08.682Z,1003.09
2019-01-18T02:26:08.657Z,1003.16
2019-01-18T02:27:08.640Z,1003.22
2019-01-18T02:28:08.636Z,1003.21
2019-01-18T02:29:08.648Z,1003.22
2019-01-18T02:30:08.635Z,1003.21
2019-01-18T02:31:08.602Z,1003.29
2019-01-18T02:32:08.600Z,1003.28
2019-01-18T02:33:08.579Z,1003.29
2019-01-18T02:34:08.566Z,1003.37
2019-01-18T02:35:08.578Z,1003.38
2019-01-18T02:36:08.543Z,1003.42
2019-01-18T02:37:08.528Z,1003.54
2019-01-18T02:38:08.524Z,1003.50
2019-01-18T02:39:08.543Z,1003.60
2019-01-18T02:40:08.500Z,1003.56
2019-01-18T02:41:08.530Z,1003.54
2019-01-18T02:42:08.475Z,1003.61
2019-01-18T02:43:08.465Z,1003.62
2019-01-18T02:44:08.461Z,1003.63
2019-01-18T02:45:08.449Z,1003.71
2019-01-18T02:46:08.453Z,1003.67
2019-01-18T02:47:08.417Z,1003.74
2019-01-18T02:48:08.416Z,1003.73
2019-01-18T02:49:08.406Z,1003.79
2019-01-18T02:50:08.394Z,1003.80
2019-01-18T02:51:08.402Z,1003.90
2019-01-18T02:52:08.370Z,1003.91
2019-01-18T02:53:08.354Z,1003.90
2019-01-18T02:54:08.361Z,1003.95
2019-01-18T02:55:08.339Z,1004.01
2019-01-18T02:56:08.359Z,1004.05
2019-01-18T02:57:08.309Z,1004.06
2019-01-18T02:58:08.303Z,1004.11
2019-01-18T02:59:08.290Z,1004.12
2019-01-18T03:00:08.284Z,1004.17
2019-01-18T03:01:08.289Z,1004.11
2019-01-18T03:02:08.277Z,1004.14
2019-01-18T03:03:08.249Z,1004.16
2019-01-18T03:04:08.243Z,1004.22
2019-01-18T03:05:08.223Z,1004.20
2019-01-18T03:06:08.211Z,1004.29
2019-01-18T03:07:08.236Z,1004.31
2019-01-18T03:08:08.195Z,1004.39
2019-01-18T03:09:08.190Z,1004.38
2019-01-18T03:10:08.162Z,1004.41
2019-01-18T03:11:08.175Z,1004.43
2019-01-18T03:12:08.176Z,1004.47
2019-01-18T03:13:08.137Z,1004.43
2019-01-18T03:14:08.141Z,1004.51
2019-01-18T03:15:08.108Z,1004.52
2019-01-18T03:16:08.103Z,1004.61
2019-01-18T03:17:08.118Z,1004.57
2019-01-18T03:18:08.093Z,1004.62
2019-01-18T03:19:08.070Z,1004.59
2019-01-18T03:20:08.060Z,1004.63
2019-01-18T03:21:08.044Z,1004.64
2019-01-18T03:22:08.035Z,1004.69
2019-01-18T03:23:08.053Z,1004.68
2019-01-18T03:24:08.009Z,1004.69
2019-01-18T03:25:08.055Z,1004.72
2019-01-18T03:26:08.000Z,1004.74
2019-01-18T03:27:07.983Z,1004.68
2019-01-18T03:28:07.964Z,1004.80
2019-01-18T03:29:07.955Z,1004.73
2019-01-18T03:30:18.140Z,1004.78
2019-01-18T03:31:08.954Z,1004.77
2019-01-18T03:32:07.950Z,1004.78
2019-01-18T03:33:07.929Z,1004.88
2019-01-18T03:34:07.918Z,1004.87
2019-01-18T03:35:07.937Z,1004.89
2019-01-18T03:36:07.884Z,1004.94
2019-01-18T03:37:07.870Z,1004.97
2019-01-18T03:38:07.854Z,1005.00
2019-01-18T03:39:07.884Z,1005.02
2019-01-18T03:40:07.843Z,1005.05
2019-01-18T03:41:07.823Z,1005.08
2019-01-18T03:42:07.810Z,1005.11
2019-01-18T03:43:07.802Z,1005.09
2019-01-18T03:44:07.787Z,1005.15
2019-01-18T03:45:07.798Z,1005.15
2019-01-18T03:46:07.766Z,1005.17
2019-01-18T03:47:07.758Z,1005.15
2019-01-18T03:48:07.752Z,1005.21
2019-01-18T03:49:07.733Z,1005.25
2019-01-18T03:50:07.790Z,1005.25
2019-01-18T03:51:07.714Z,1005.24
2019-01-18T03:52:07.705Z,1005.30
2019-01-18T03:53:07.692Z,1005.27
2019-01-18T03:54:07.696Z,1005.31
2019-01-18T03:55:07.694Z,1005.30
2019-01-18T03:56:07.657Z,1005.34
2019-01-18T03:57:07.646Z,1005.36
2019-01-18T03:58:07.639Z,1005.36
2019-01-18T03:59:07.634Z,1005.37
2019-01-18T04:00:07.638Z,1005.42
2019-01-18T04:01:07.620Z,1005.45
2019-01-18T04:02:07.605Z,1005.47
2019-01-18T04:03:07.589Z,1005.51
2019-01-18T04:04:07.585Z,1005.47
2019-01-18T04:05:07.582Z,1005.54
2019-01-18T04:06:07.567Z,1005.63
2019-01-18T04:07:07.536Z,1005.54
2019-01-18T04:08:07.524Z,1005.59
2019-01-18T04:09:07.518Z,1005.66
2019-01-18T04:10:07.514Z,1005.66
2019-01-18T04:11:07.509Z,1005.66
2019-01-18T04:12:07.487Z,1005.66
2019-01-18T04:13:07.472Z,1005.67
2019-01-18T04:14:07.461Z,1005.76
2019-01-18T04:15:07.447Z,1005.75
2019-01-18T04:16:07.465Z,1005.76
2019-01-18T04:17:07.434Z,1005.82
2019-01-18T04:18:07.411Z,1005.88
2019-01-18T04:19:07.427Z,1005.88
2019-01-18T04:20:07.397Z,1005.90
2019-01-18T04:21:07.390Z,1005.89
2019-01-18T04:22:07.400Z,1005.93
2019-01-18T04:23:07.361Z,1005.99
2019-01-18T04:24:07.357Z,1006.00
2019-01-18T04:25:07.355Z,1006.00
2019-01-18T04:26:07.365Z,1006.01
2019-01-18T04:27:07.698Z,1006.02
2019-01-18T04:28:07.308Z,1006.07
2019-01-18T04:29:07.306Z,1006.11
2019-01-18T04:30:07.284Z,1006.13
2019-01-18T04:31:07.270Z,1006.05
2019-01-18T04:32:07.284Z,1006.06
2019-01-18T04:33:07.247Z,1006.14
2019-01-18T04:34:07.235Z,1006.12
2019-01-18T04:35:07.227Z,1006.19
2019-01-18T04:36:07.210Z,1006.22
2019-01-18T04:37:07.228Z,1006.22
2019-01-18T04:38:07.200Z,1006.21
2019-01-18T04:39:07.189Z,1006.24
2019-01-18T04:40:07.174Z,1006.28
2019-01-18T04:41:07.158Z,1006.27
2019-01-18T04:42:07.189Z,1006.35
2019-01-18T04:43:07.144Z,1006.31
2019-01-18T04:44:07.143Z,1006.37
2019-01-18T04:45:07.117Z,1006.36
2019-01-18T04:46:07.112Z,1006.44
2019-01-18T04:47:07.132Z,1006.39
2019-01-18T04:48:07.080Z,1006.40
2019-01-18T04:49:07.076Z,1006.48
2019-01-18T04:50:07.076Z,1006.49
2019-01-18T04:51:07.058Z,1006.47
2019-01-18T04:52:07.052Z,1006.52
2019-01-18T04:53:07.047Z,1006.52
2019-01-18T04:54:07.016Z,1006.49
2019-01-18T04:55:07.006Z,1006.48
2019-01-18T04:56:06.994Z,1006.57
2019-01-18T04:57:06.999Z,1006.60
2019-01-18T04:58:06.987Z,1006.58
2019-01-18T04:59:06.957Z,1006.66
2019-01-18T05:00:06.954Z,1006.65
2019-01-18T05:01:06.942Z,1006.70
2019-01-18T05:02:06.925Z,1006.66
2019-01-18T05:03:06.932Z,1006.72
2019-01-18T05:04:06.905Z,1006.82
2019-01-18T05:05:06.894Z,1006.82
2019-01-18T05:06:06.892Z,1006.80
2019-01-18T05:07:06.872Z,1006.86
2019-01-18T05:08:06.878Z,1006.90
2019-01-18T05:09:06.844Z,1006.93
2019-01-18T05:10:06.924Z,1006.96
2019-01-18T05:11:06.899Z,1006.97
2019-01-18T05:12:06.816Z,1007.00
2019-01-18T05:13:06.841Z,1007.00
2019-01-18T05:14:06.801Z,1007.14
2019-01-18T05:15:06.794Z,1007.09
2019-01-18T05:16:06.770Z,1007.13
2019-01-18T05:17:06.763Z,1007.12
2019-01-18T05:18:06.778Z,1007.17
2019-01-18T05:19:06.745Z,1007.15
2019-01-18T05:20:06.725Z,1007.15
2019-01-18T05:21:06.716Z,1007.15
2019-01-18T05:22:06.707Z,1007.20
2019-01-18T05:23:06.712Z,1007.18
2019-01-18T05:24:06.695Z,1007.24
2019-01-18T05:25:06.675Z,1007.22
2019-01-18T05:26:06.662Z,1007.24
2019-01-18T05:27:06.649Z,1007.28
2019-01-18T05:28:06.680Z,1007.32
2019-01-18T05:29:06.630Z,1007.33
2019-01-18T05:30:06.627Z,1007.37
2019-01-18T05:31:06.607Z,1007.40
2019-01-18T05:32:06.612Z,1007.40
2019-01-18T05:33:06.616Z,1007.41
2019-01-18T05:34:06.587Z,1007.37
2019-01-18T05:35:06.559Z,1007.54
2019-01-18T05:36:06.550Z,1007.49
2019-01-18T05:37:06.540Z,1007.49
2019-01-18T05:38:06.524Z,1007.53
2019-01-18T05:39:06.537Z,1007.54
2019-01-18T05:40:06.508Z,1007.59
2019-01-18T05:41:06.502Z,1007.70
2019-01-18T05:42:06.482Z,1007.74
2019-01-18T05:43:06.482Z,1007.71
2019-01-18T05:44:06.559Z,1007.68
2019-01-18T05:45:06.523Z,1007.79
2019-01-18T05:46:06.449Z,1007.84
2019-01-18T05:47:06.434Z,1007.83
2019-01-18T05:48:06.418Z,1007.91
2019-01-18T05:49:06.430Z,1007.88
2019-01-18T05:50:06.398Z,1007.95
2019-01-18T05:51:06.386Z,1007.96
2019-01-18T05:52:06.372Z,1008.05
2019-01-18T05:53:06.361Z,1008.00
2019-01-18T05:54:06.392Z,1008.00
2019-01-18T05:55:06.354Z,1008.05
2019-01-18T05:56:06.340Z,1008.11
2019-01-18T05:57:06.320Z,1008.11
2019-01-18T05:58:06.307Z,1008.12
2019-01-18T05:59:06.327Z,1008.14
2019-01-18T06:00:06.288Z,1008.18
2019-01-18T06:01:06.275Z,1008.21
2019-01-18T06:02:06.264Z,1008.26
2019-01-18T06:03:06.259Z,1008.22
2019-01-18T06:04:06.261Z,1008.28
2019-01-18T06:05:06.238Z,1008.31
2019-01-18T06:06:06.230Z,1008.27
2019-01-18T06:07:06.205Z,1008.26
2019-01-18T06:08:06.199Z,1008.24
2019-01-18T06:09:06.215Z,1008.30
2019-01-18T06:10:06.186Z,1008.37
2019-01-18T06:11:06.232Z,1008.35
2019-01-18T06:12:06.164Z,1008.39
2019-01-18T06:13:06.139Z,1008.31
2019-01-18T06:14:06.164Z,1008.38
2019-01-18T06:15:06.118Z,1008.42
2019-01-18T06:16:06.105Z,1008.47
2019-01-18T06:17:06.097Z,1008.43
2019-01-18T06:18:06.086Z,1008.55
2019-01-18T06:19:06.073Z,1008.57
2019-01-18T06:20:06.076Z,1008.59
2019-01-18T06:21:06.053Z,1008.54
2019-01-18T06:22:06.049Z,1008.58
2019-01-18T06:23:06.034Z,1008.61
2019-01-18T06:24:06.019Z,1008.60
2019-01-18T06:25:06.022Z,1008.66
2019-01-18T06:26:06.016Z,1008.72
2019-01-18T06:27:05.993Z,1008.71
2019-01-18T06:28:05.974Z,1008.81
2019-01-18T06:29:05.968Z,1008.82
2019-01-18T06:30:05.995Z,1008.86
2019-01-18T06:31:05.950Z,1008.94
2019-01-18T06:32:05.930Z,1008.92
2019-01-18T06:33:05.918Z,1008.97
2019-01-18T06:34:05.914Z,1008.90
2019-01-18T06:35:05.922Z,1008.96
2019-01-18T06:36:05.888Z,1009.01
2019-01-18T06:37:05.873Z,1009.00
2019-01-18T06:38:05.868Z,1009.00
2019-01-18T06:39:05.850Z,1009.04
2019-01-18T06:40:05.862Z,1009.06
2019-01-18T06:41:05.835Z,1009.12
2019-01-18T06:42:05.815Z,1009.13
2019-01-18T06:43:05.810Z,1009.13
2019-01-18T06:44:05.800Z,1009.14
2019-01-18T06:45:05.825Z,1009.23
2019-01-18T06:46:05.794Z,1009.21
2019-01-18T06:47:05.764Z,1009.20
2019-01-18T06:48:05.750Z,1009.34
2019-01-18T06:49:05.742Z,1009.27
2019-01-18T06:50:05.758Z,1009.28
2019-01-18T06:51:05.726Z,1009.42
2019-01-18T06:52:05.723Z,1009.37
2019-01-18T06:53:05.701Z,1009.38
2019-01-18T06:54:05.730Z,1009.40
2019-01-18T06:55:05.693Z,1009.50
2019-01-18T06:56:05.663Z,1009.52
2019-01-18T06:57:05.648Z,1009.58
2019-01-18T06:58:05.646Z,1009.59
2019-01-18T06:59:05.632Z,1009.66
2019-01-18T07:00:05.634Z,1009.69
2019-01-18T07:01:08.628Z,1009.69
2019-01-18T07:02:05.596Z,1009.71
2019-01-18T07:03:05.586Z,1009.74
2019-01-18T07:04:05.575Z,1009.74
2019-01-18T07:05:05.591Z,1009.77
2019-01-18T07:06:05.568Z,1009.80
2019-01-18T07:07:05.537Z,1009.81
2019-01-18T07:08:05.536Z,1009.83
2019-01-18T07:09:05.529Z,1009.86
2019-01-18T07:10:05.509Z,1009.88
2019-01-18T07:11:05.510Z,1009.91
2019-01-18T07:12:05.481Z,1009.92
2019-01-18T07:13:05.471Z,1009.99
2019-01-18T07:14:05.462Z,1009.99
2019-01-18T07:15:05.452Z,1009.98
2019-01-18T07:16:05.455Z,1010.03
2019-01-18T07:17:05.437Z,1010.07
2019-01-18T07:18:05.424Z,1010.04
2019-01-18T07:19:05.409Z,1010.08
2019-01-18T07:20:05.453Z,1010.07
2019-01-18T07:21:05.408Z,1010.07
2019-01-18T07:22:05.370Z,1010.15
2019-01-18T07:23:05.372Z,1010.22
2019-01-18T07:24:05.364Z,1010.17
2019-01-18T07:25:05.345Z,1010.24
2019-01-18T07:26:05.350Z,1010.33
2019-01-18T07:27:05.341Z,1010.29
2019-01-18T07:28:05.309Z,1010.33
2019-01-18T07:29:05.298Z,1010.37
2019-01-18T07:30:05.284Z,1010.45
2019-01-18T07:31:05.295Z,1010.39
2019-01-18T07:32:05.273Z,1010.45
2019-01-18T07:33:05.264Z,1010.50
2019-01-18T07:34:05.259Z,1010.45
2019-01-18T07:35:05.242Z,1010.46
2019-01-18T07:36:05.245Z,1010.55
2019-01-18T07:37:05.210Z,1010.52
2019-01-18T07:38:05.202Z,1010.59
2019-01-18T07:39:05.186Z,1010.62
2019-01-18T07:40:05.189Z,1010.68
2019-01-18T07:41:05.183Z,1010.68
2019-01-18T07:42:05.152Z,1010.74
2019-01-18T07:43:05.164Z,1010.69
2019-01-18T07:44:05.138Z,1010.74
2019-01-18T07:45:05.126Z,1010.79
2019-01-18T07:46:05.235Z,1010.83
2019-01-18T07:47:05.102Z,1010.81
2019-01-18T07:48:05.087Z,1010.87
2019-01-18T07:49:05.083Z,1010.85
2019-01-18T07:50:05.061Z,1010.87
2019-01-18T07:51:05.095Z,1010.90
2019-01-18T07:52:05.040Z,1010.94
2019-01-18T07:53:05.043Z,1010.90
2019-01-18T07:54:05.035Z,1010.99
2019-01-18T07:55:05.020Z,1010.98
2019-01-18T07:56:04.997Z,1010.95
2019-01-18T07:57:05.006Z,1011.06
2019-01-18T07:58:04.975Z,1011.06
2019-01-18T07:59:04.966Z,1011.12
2019-01-18T08:00:04.956Z,1011.15
2019-01-18T08:01:04.957Z,1011.16
2019-01-18T08:02:04.960Z,1011.19
2019-01-18T08:03:04.940Z,1011.17
2019-01-18T08:04:04.940Z,1011.22
2019-01-18T08:05:04.898Z,1011.34
2019-01-18T08:06:04.901Z,1011.33
2019-01-18T08:07:04.875Z,1011.32
2019-01-18T08:08:04.881Z,1011.39
2019-01-18T08:09:04.870Z,1011.40
2019-01-18T08:10:04.839Z,1011.39
2019-01-18T08:11:04.831Z,1011.43
2019-01-18T08:12:04.831Z,1011.44
2019-01-18T08:13:04.851Z,1011.50
2019-01-18T08:14:04.813Z,1011.49
2019-01-18T08:15:04.793Z,1011.51
2019-01-18T08:16:04.777Z,1011.60
2019-01-18T08:17:04.770Z,1011.61
2019-01-18T08:18:04.776Z,1011.56
2019-01-18T08:19:04.752Z,1011.65
2019-01-18T08:20:04.754Z,1011.68
2019-01-18T08:21:04.720Z,1011.68
2019-01-18T08:22:04.711Z,1011.73
2019-01-18T08:23:04.720Z,1011.71
2019-01-18T08:24:04.690Z,1011.76
2019-01-18T08:25:04.686Z,1011.76
2019-01-18T08:26:04.680Z,1011.82
2019-01-18T08:27:04.661Z,1011.81
2019-01-18T08:28:04.667Z,1011.82
2019-01-18T08:29:04.641Z,1011.82
2019-01-18T08:30:04.736Z,1011.89
2019-01-18T08:31:04.623Z,1011.87
2019-01-18T08:32:04.612Z,1011.90
2019-01-18T08:33:04.626Z,1011.93
2019-01-18T08:34:04.583Z,1011.96
2019-01-18T08:35:04.582Z,1011.97
2019-01-18T08:36:04.561Z,1012.09
2019-01-18T08:37:04.568Z,1011.95
2019-01-18T08:38:04.569Z,1012.02
2019-01-18T08:39:04.534Z,1012.07
2019-01-18T08:40:04.526Z,1012.07
2019-01-18T08:41:04.502Z,1012.04
2019-01-18T08:42:04.492Z,1012.12
2019-01-18T08:43:04.502Z,1012.13
2019-01-18T08:44:04.466Z,1012.20
2019-01-18T08:45:04.457Z,1012.20
2019-01-18T08:46:04.460Z,1012.17
2019-01-18T08:47:04.437Z,1012.12
2019-01-18T08:48:04.463Z,1012.15
2019-01-18T08:49:04.429Z,1012.18
2019-01-18T08:50:04.407Z,1012.22
2019-01-18T08:51:04.392Z,1012.24
2019-01-18T08:52:04.393Z,1012.22
2019-01-18T08:53:04.400Z,1012.22
2019-01-18T08:54:04.366Z,1012.29
2019-01-18T08:55:04.353Z,1012.32
2019-01-18T08:56:04.338Z,1012.32
2019-01-18T08:57:04.346Z,1012.27
2019-01-18T08:58:04.336Z,1012.29
2019-01-18T08:59:04.302Z,1012.44
2019-01-18T09:00:04.297Z,1012.35
2019-01-18T09:01:04.281Z,1012.42
2019-01-18T09:02:04.271Z,1012.40
2019-01-18T09:03:04.301Z,1012.41
2019-01-18T09:04:04.267Z,1012.41
2019-01-18T09:05:04.241Z,1012.46
2019-01-18T09:06:04.234Z,1012.43
2019-01-18T09:07:04.221Z,1012.43
2019-01-18T09:08:04.202Z,1012.49
2019-01-18T09:09:04.211Z,1012.52
2019-01-18T09:10:04.177Z,1012.45
2019-01-18T09:11:04.176Z,1012.52
2019-01-18T09:12:04.177Z,1012.49
2019-01-18T09:13:04.148Z,1012.58
2019-01-18T09:14:04.155Z,1012.61
2019-01-18T09:15:04.155Z,1012.58
2019-01-18T09:16:04.112Z,1012.61
2019-01-18T09:17:04.109Z,1012.61
2019-01-18T09:18:04.093Z,1012.67
2019-01-18T09:19:04.117Z,1012.69
2019-01-18T09:20:04.074Z,1012.64
2019-01-18T09:21:04.066Z,1012.65
2019-01-18T09:22:04.046Z,1012.65
2019-01-18T09:23:04.075Z,1012.66
2019-01-18T09:24:04.059Z,1012.67
2019-01-18T09:25:04.017Z,1012.72
2019-01-18T09:26:04.016Z,1012.74
2019-01-18T09:27:04.027Z,1012.77
2019-01-18T09:28:03.988Z,1012.76
2019-01-18T09:29:03.986Z,1012.79
2019-01-18T09:30:04.000Z,1012.81
2019-01-18T09:31:03.956Z,1012.75
2019-01-18T09:32:03.948Z,1012.82
2019-01-18T09:33:03.928Z,1012.84
2019-01-18T09:34:03.924Z,1012.82
2019-01-18T09:35:03.934Z,1012.86
2019-01-18T09:36:03.892Z,1012.85
2019-01-18T09:37:03.895Z,1012.87
2019-01-18T09:38:03.879Z,1012.91
2019-01-18T09:39:03.858Z,1012.97
2019-01-18T09:40:03.865Z,1012.96
2019-01-18T09:41:03.839Z,1012.94
2019-01-18T09:42:03.832Z,1012.99
2019-01-18T09:43:03.814Z,1013.10
2019-01-18T09:44:03.815Z,1013.00
2019-01-18T09:45:03.807Z,1013.06
2019-01-18T09:46:03.790Z,1013.05
2019-01-18T09:47:03.772Z,1013.08
2019-01-18T09:48:03.761Z,1013.05
2019-01-18T09:49:03.782Z,1012.98
2019-01-18T09:50:03.770Z,1013.07
2019-01-18T09:51:03.732Z,1013.05
2019-01-18T09:52:03.716Z,1013.09
2019-01-18T09:53:03.714Z,1013.06
2019-01-18T09:54:03.694Z,1013.08
2019-01-18T09:55:03.713Z,1013.08
2019-01-18T09:56:03.671Z,1013.12
2019-01-18T09:57:03.667Z,1013.11
2019-01-18T09:58:03.649Z,1013.18
2019-01-18T09:59:03.640Z,1013.04
2019-01-18T10:00:03.676Z,1013.08
2019-01-18T10:01:03.635Z,1013.06
2019-01-18T10:02:03.607Z,1013.08
2019-01-18T10:03:03.604Z,1013.07
2019-01-18T10:04:03.583Z,1013.06
2019-01-18T10:05:03.587Z,1013.07
2019-01-18T10:06:03.612Z,1013.06
2019-01-18T10:07:03.566Z,1013.01
2019-01-18T10:08:03.540Z,1013.03
2019-01-18T10:09:03.533Z,1013.06
2019-01-18T10:10:03.552Z,1013.11
2019-01-18T10:11:03.510Z,1013.05
2019-01-18T10:12:03.498Z,1013.09
2019-01-18T10:13:03.487Z,1013.09
2019-01-18T10:14:03.477Z,1013.11
2019-01-18T10:15:03.463Z,1013.14
2019-01-18T10:16:03.485Z,1013.11
2019-01-18T10:17:03.442Z,1013.04
2019-01-18T10:18:03.446Z,1013.09
2019-01-18T10:19:03.423Z,1013.08
2019-01-18T10:20:03.421Z,1013.13
2019-01-18T10:21:03.421Z,1013.14
2019-01-18T10:22:03.379Z,1013.09
2019-01-18T10:23:03.377Z,1013.14
2019-01-18T10:24:03.359Z,1013.19
2019-01-18T10:25:03.345Z,1013.16
2019-01-18T10:26:03.356Z,1013.06
2019-01-18T10:27:03.325Z,1013.14
2019-01-18T10:28:03.310Z,1013.14
2019-01-18T10:29:03.308Z,1013.16
2019-01-18T10:30:03.294Z,1013.17
2019-01-18T10:31:03.296Z,1013.17
2019-01-18T10:32:03.275Z,1013.21
2019-01-18T10:33:03.266Z,1013.08
2019-01-18T10:34:03.249Z,1013.16
2019-01-18T10:35:03.238Z,1013.14
2019-01-18T10:36:03.249Z,1013.16
2019-01-18T10:37:03.214Z,1013.18
2019-01-18T10:38:03.205Z,1013.09
2019-01-18T10:39:03.188Z,1013.13
2019-01-18T10:40:03.190Z,1013.12
2019-01-18T10:41:03.199Z,1013.13
2019-01-18T10:42:03.160Z,1013.08
2019-01-18T10:43:03.163Z,1013.13
2019-01-18T10:44:06.141Z,1013.13
2019-01-18T10:45:03.126Z,1013.18
2019-01-18T10:46:03.196Z,1013.13
2019-01-18T10:47:03.104Z,1013.23
2019-01-18T10:48:03.099Z,1013.25
2019-01-18T10:49:03.088Z,1013.30
2019-01-18T10:50:03.067Z,1013.31
2019-01-18T10:51:03.109Z,1013.19
2019-01-18T10:52:03.067Z,1013.19
2019-01-18T10:53:03.034Z,1013.31
2019-01-18T10:54:03.029Z,1013.33
2019-01-18T10:55:03.439Z,1013.28
2019-01-18T10:56:03.016Z,1013.41
2019-01-18T10:57:03.002Z,1013.35
2019-01-18T10:58:02.971Z,1013.47
2019-01-18T10:59:02.963Z,1013.37
2019-01-18T11:00:02.959Z,1013.43
2019-01-18T11:01:02.943Z,1013.45
2019-01-18T11:02:07.264Z,1013.49
2019-01-18T11:03:02.924Z,1013.47
2019-01-18T11:04:02.929Z,1013.57
2019-01-18T11:05:02.904Z,1013.52
2019-01-18T11:06:02.908Z,1013.54
2019-01-18T11:07:02.871Z,1013.52
2019-01-18T11:08:02.888Z,1013.58
2019-01-18T11:09:02.866Z,1013.56
2019-01-18T11:10:02.840Z,1013.62
2019-01-18T11:11:02.828Z,1013.52
2019-01-18T11:12:02.816Z,1013.58
2019-01-18T11:13:02.839Z,1013.67
2019-01-18T11:14:02.797Z,1013.64
2019-01-18T11:15:02.786Z,1013.63
2019-01-18T11:16:02.787Z,1013.59
2019-01-18T11:17:02.757Z,1013.61
2019-01-18T11:18:02.748Z,1013.62
2019-01-18T11:19:02.754Z,1013.61
2019-01-18T11:20:02.739Z,1013.66
2019-01-18T11:21:02.714Z,1013.68
2019-01-18T11:22:02.703Z,1013.70
2019-01-18T11:23:02.697Z,1013.68
2019-01-18T11:24:02.711Z,1013.66
2019-01-18T11:25:02.676Z,1013.68
2019-01-18T11:26:02.666Z,1013.59
2019-01-18T11:27:02.649Z,1013.65
2019-01-18T11:28:02.638Z,1013.65
2019-01-18T11:29:02.645Z,1013.67
2019-01-18T11:30:02.620Z,1013.70
2019-01-18T11:31:02.618Z,1013.77
2019-01-18T11:32:02.611Z,1013.66
2019-01-18T11:33:02.580Z,1013.72
2019-01-18T11:34:02.582Z,1013.66
2019-01-18T11:35:02.582Z,1013.66
2019-01-18T11:36:02.546Z,1013.65
2019-01-18T11:37:02.540Z,1013.67
2019-01-18T11:38:02.525Z,1013.69
2019-01-18T11:39:02.529Z,1013.66
2019-01-18T11:40:02.535Z,1013.77
2019-01-18T11:41:02.487Z,1013.73
2019-01-18T11:42:05.348Z,1013.72
2019-01-18T11:43:02.483Z,1013.78
2019-01-18T11:44:02.498Z,1013.73
2019-01-18T11:45:02.464Z,1013.70
2019-01-18T11:46:02.450Z,1013.70
2019-01-18T11:47:02.425Z,1013.72
2019-01-18T11:48:02.407Z,1013.71
2019-01-18T11:49:02.401Z,1013.77
2019-01-18T11:50:02.431Z,1013.71
2019-01-18T11:51:02.389Z,1013.74
2019-01-18T11:52:02.363Z,1013.76
2019-01-18T11:53:02.358Z,1013.71
2019-01-18T11:54:02.344Z,1013.75
2019-01-18T11:55:02.354Z,1013.79
2019-01-18T11:56:02.321Z,1013.77
2019-01-18T11:57:02.314Z,1013.75
2019-01-18T11:58:02.293Z,1013.79
2019-01-18T11:59:02.297Z,1013.73
2019-01-18T12:00:02.303Z,1013.76
2019-01-18T12:01:02.269Z,1013.80
2019-01-18T12:02:02.270Z,1013.80
2019-01-18T12:03:02.244Z,1013.76
2019-01-18T12:04:02.226Z,1013.84
2019-01-18T12:05:02.227Z,1013.86